Time;durP1;ratioP1;P1;durP2;ratioP2;P2;SDS_P1;SDS_P2;PMS_P1;PMS_P2;Temp;Humidity;BMP_temperature;BMP_pressure;BME280_temperature;BME280_humidity;BME280_pressure;Samples;Min_cycle;Max_cycle;Signal;HPM_P1;HPM_P2
2021/03/03 00:02:14;;;;;;;15.40;9.05;;;-0.20;99.90;;;;;;5054183;28;20043;-74
2021/03/03 00:04:40;;;;;;;16.75;9.32;;;-0.20;99.90;;;;;;5055809;28;20028;-74
2021/03/03 00:07:05;;;;;;;16.95;9.68;;;-0.20;99.90;;;;;;5057314;28;20043;-74
2021/03/03 00:09:31;;;;;;;13.15;8.32;;;-0.30;99.90;;;;;;5054210;28;20048;-74
2021/03/03 00:11:57;;;;;;;14.25;8.10;;;-0.30;99.90;;;;;;5053938;28;20036;-75
2021/03/03 00:14:22;;;;;;;16.75;9.18;;;-0.40;99.90;;;;;;5053431;28;20040;-74
2021/03/03 00:16:48;;;;;;;15.15;9.35;;;-0.40;99.90;;;;;;5054172;28;20047;-74
2021/03/03 00:19:13;;;;;;;16.88;9.05;;;-0.40;99.90;;;;;;5069647;28;20028;-74
2021/03/03 00:21:39;;;;;;;15.70;9.70;;;-0.40;99.90;;;;;;5069146;28;20032;-75
2021/03/03 00:24:05;;;;;;;15.65;8.73;;;-0.50;99.90;;;;;;5053397;28;20068;-74
2021/03/03 00:26:31;;;;;;;17.55;8.98;;;-0.50;99.90;;;;;;5053788;28;20024;-74
2021/03/03 00:28:56;;;;;;;14.43;9.38;;;-0.50;99.90;;;;;;5053889;28;20017;-74
2021/03/03 00:31:22;;;;;;;15.35;9.55;;;-0.60;99.90;;;;;;5053647;28;20469;-75
2021/03/03 00:33:48;;;;;;;17.05;10.95;;;-0.60;99.90;;;;;;5062634;28;20032;-74
2021/03/03 00:36:14;;;;;;;28.48;12.73;;;-0.60;99.90;;;;;;5056894;28;20044;-74
2021/03/03 00:38:40;;;;;;;25.05;11.00;;;-0.60;99.90;;;;;;5053568;28;20029;-74
2021/03/03 00:41:06;;;;;;;19.05;11.57;;;-0.60;99.90;;;;;;5053440;28;20035;-74
2021/03/03 00:43:32;;;;;;;19.88;10.95;;;-0.60;99.90;;;;;;5053852;28;20033;-74
2021/03/03 00:45:58;;;;;;;16.15;9.75;;;-0.60;99.90;;;;;;5052782;28;20033;-74
2021/03/03 00:48:23;;;;;;;20.52;11.32;;;-0.60;99.90;;;;;;5053481;28;20069;-74
2021/03/03 00:50:49;;;;;;;15.77;9.85;;;-0.60;99.90;;;;;;5064271;28;20032;-74
2021/03/03 00:53:15;;;;;;;21.85;11.10;;;-0.60;99.90;;;;;;5073402;28;20048;-74
2021/03/03 00:55:40;;;;;;;21.73;11.90;;;-0.60;99.90;;;;;;5072633;28;20577;-74
2021/03/03 00:58:06;;;;;;;21.58;10.95;;;-0.60;99.90;;;;;;5073181;28;20029;-74
2021/03/03 01:00:33;;;;;;;23.80;12.10;;;-0.60;99.90;;;;;;5072461;28;20043;-74
2021/03/03 01:02:59;;;;;;;22.58;12.48;;;-0.60;99.90;;;;;;5073028;28;20435;-74
2021/03/03 01:05:25;;;;;;;20.67;11.23;;;-0.60;99.90;;;;;;5062612;28;20111;-74
2021/03/03 01:07:50;;;;;;;22.88;12.70;;;-0.60;99.90;;;;;;5053221;28;20477;-74
2021/03/03 01:10:16;;;;;;;22.98;13.02;;;-0.60;99.90;;;;;;5053192;28;20029;-74
2021/03/03 01:12:42;;;;;;;21.95;12.57;;;-0.60;99.90;;;;;;5052802;28;20033;-74
2021/03/03 01:15:08;;;;;;;26.00;14.23;;;-0.60;99.90;;;;;;5051000;28;20036;-74
2021/03/03 01:17:34;;;;;;;25.45;13.48;;;-0.60;99.90;;;;;;5052245;28;20122;-74
2021/03/03 01:20:00;;;;;;;25.63;13.18;;;-0.60;99.90;;;;;;5059210;28;20059;-75
2021/03/03 01:22:26;;;;;;;25.85;13.45;;;-0.60;99.90;;;;;;5072649;28;20560;-74
2021/03/03 01:24:52;;;;;;;26.48;14.40;;;-0.60;99.90;;;;;;5071983;28;20116;-74
2021/03/03 01:27:21;;;;;;;27.15;15.30;;;-0.60;99.90;;;;;;5072691;28;20104;-74
2021/03/03 01:29:46;;;;;;;25.67;14.48;;;-0.60;99.90;;;;;;5071013;28;20028;-75
2021/03/03 01:32:12;;;;;;;26.10;14.82;;;-0.60;99.90;;;;;;5052847;28;20025;-74
2021/03/03 01:34:38;;;;;;;26.55;14.45;;;-0.60;99.90;;;;;;5052101;28;20132;-74
2021/03/03 01:37:03;;;;;;;27.63;15.10;;;-0.60;99.90;;;;;;5052480;28;20040;-74
2021/03/03 01:39:29;;;;;;;27.30;15.40;;;-0.60;99.90;;;;;;5052515;28;20056;-74
2021/03/03 01:41:54;;;;;;;27.73;14.95;;;-0.60;99.90;;;;;;5067788;28;20021;-74
2021/03/03 01:44:20;;;;;;;24.08;13.52;;;-0.60;99.90;;;;;;5070703;28;20032;-75
2021/03/03 01:46:46;;;;;;;30.42;14.23;;;-0.70;99.90;;;;;;5072137;28;20370;-75
2021/03/03 01:49:12;;;;;;;25.73;13.57;;;-0.70;99.90;;;;;;5072152;28;20021;-75
2021/03/03 01:51:37;;;;;;;22.85;13.20;;;-0.70;99.90;;;;;;5052224;28;20031;-75
2021/03/03 01:54:03;;;;;;;22.95;13.27;;;-0.70;99.90;;;;;;5051641;28;20032;-74
2021/03/03 01:56:29;;;;;;;26.17;13.55;;;-0.80;99.90;;;;;;5052063;28;20544;-75
2021/03/03 01:58:55;;;;;;;24.75;13.70;;;-0.80;99.90;;;;;;5051146;28;20392;-75
2021/03/03 02:01:20;;;;;;;24.73;14.05;;;-0.90;99.90;;;;;;5066321;28;20404;-74
2021/03/03 02:03:47;;;;;;;23.73;12.95;;;-0.90;99.90;;;;;;5071440;28;20032;-75
2021/03/03 02:06:24;;;;;;;21.58;12.15;;;-0.90;99.90;;;;;;5055068;28;20033;-74
2021/03/03 02:09:15;;;;;;;26.23;14.55;;;-1.00;99.90;;;;;;5050782;28;20403;-75
2021/03/03 02:11:47;;;;;;;25.85;14.07;;;-1.00;99.90;;;;;;5051792;28;20064;-74
2021/03/03 02:14:19;;;;;;;28.08;15.00;;;-1.00;99.90;;;;;;5066329;28;20481;-74
2021/03/03 02:16:46;;;;;;;23.48;13.77;;;-1.00;99.90;;;;;;5051810;28;20036;-74
2021/03/03 02:19:18;;;;;;;23.77;13.95;;;-1.00;99.90;;;;;;5051655;28;20025;-74
2021/03/03 02:21:49;;;;;;;22.83;13.13;;;-1.00;99.90;;;;;;5051458;28;20063;-74
2021/03/03 02:24:25;;;;;;;27.10;15.57;;;-1.10;99.90;;;;;;5050961;28;20017;-74
2021/03/03 02:26:52;;;;;;;26.20;14.73;;;-1.10;99.90;;;;;;5051721;28;20025;-74
2021/03/03 02:29:24;;;;;;;28.63;15.48;;;-1.10;99.90;;;;;;5050626;28;20033;-74
2021/03/03 02:31:51;;;;;;;25.45;14.75;;;-1.10;99.90;;;;;;5064430;28;20024;-74
2021/03/03 02:34:19;;;;;;;25.90;14.00;;;-1.10;99.90;;;;;;5070245;28;20408;-74
2021/03/03 02:36:47;;;;;;;26.83;15.00;;;-1.10;99.90;;;;;;5051348;28;20025;-74
2021/03/03 02:39:14;;;;;;;27.48;14.55;;;-1.10;99.90;;;;;;5051572;28;20043;-74
2021/03/03 02:41:42;;;;;;;30.83;15.40;;;-1.10;99.90;;;;;;5052179;28;20503;-75
2021/03/03 02:44:08;;;;;;;28.15;13.63;;;-1.10;99.90;;;;;;5050570;28;20025;-75
2021/03/03 02:46:34;;;;;;;31.23;16.23;;;-1.10;99.90;;;;;;5051424;28;20511;-75
2021/03/03 02:49:04;;;;;;;30.70;16.42;;;-1.10;99.90;;;;;;5051504;28;20039;-75
2021/03/03 02:51:30;;;;;;;31.38;16.73;;;-1.10;99.90;;;;;;5051651;28;20021;-75
2021/03/03 02:53:56;;;;;;;29.15;16.02;;;-1.10;99.90;;;;;;5049531;28;20131;-74
2021/03/03 02:56:23;;;;;;;31.63;16.70;;;-1.20;99.90;;;;;;5051378;28;20033;-74
2021/03/03 02:58:50;;;;;;;34.50;16.42;;;-1.20;99.90;;;;;;5051025;28;20047;-74
2021/03/03 03:01:17;;;;;;;35.95;17.25;;;-1.20;99.90;;;;;;5064903;28;20024;-74
2021/03/03 03:04:03;;;;;;;32.03;17.20;;;-1.10;99.90;;;;;;5069465;28;20047;-74
2021/03/03 03:06:36;;;;;;;34.35;16.35;;;-1.10;99.90;;;;;;5052387;28;20055;-75
2021/03/03 03:09:08;;;;;;;31.80;15.98;;;-1.20;99.90;;;;;;5051375;28;20492;-74
2021/03/03 03:11:37;;;;;;;34.15;17.83;;;-1.20;99.90;;;;;;5051370;28;20040;-74
2021/03/03 03:14:08;;;;;;;34.92;16.52;;;-1.20;99.90;;;;;;5050300;28;20032;-75
2021/03/03 03:16:36;;;;;;;31.98;16.58;;;-1.20;99.90;;;;;;5051009;28;20530;-74
2021/03/03 03:19:05;;;;;;;36.40;16.50;;;-1.30;99.90;;;;;;5051126;28;20021;-74
2021/03/03 03:21:35;;;;;;;29.60;15.90;;;-1.30;99.90;;;;;;5069557;28;20092;-74
2021/03/03 03:24:02;;;;;;;31.58;16.00;;;-1.30;99.90;;;;;;5055981;28;20027;-74
2021/03/03 03:26:29;;;;;;;33.50;16.85;;;-1.30;99.90;;;;;;5051128;28;20439;-74
2021/03/03 03:28:56;;;;;;;27.65;15.25;;;-1.30;99.90;;;;;;5051078;28;20025;-74
2021/03/03 03:31:21;;;;;;;34.75;18.23;;;-1.30;99.90;;;;;;5050921;28;20086;-74
2021/03/03 03:33:49;;;;;;;32.80;15.73;;;-1.30;99.90;;;;;;5050553;28;20493;-74
2021/03/03 03:36:15;;;;;;;32.63;18.33;;;-1.40;99.90;;;;;;5050777;28;20490;-74
2021/03/03 03:38:41;;;;;;;34.92;16.83;;;-1.40;99.90;;;;;;5050215;28;20044;-74
2021/03/03 03:41:08;;;;;;;35.17;17.00;;;-1.40;99.90;;;;;;5051662;28;20033;-75
2021/03/03 03:43:36;;;;;;;38.25;17.90;;;-1.40;99.90;;;;;;5054228;28;20021;-74
2021/03/03 03:46:03;;;;;;;31.80;17.08;;;-1.40;99.90;;;;;;5064479;28;20082;-74
2021/03/03 03:48:33;;;;;;;32.05;16.92;;;-1.50;99.90;;;;;;5074704;28;20029;-74
2021/03/03 03:51:05;;;;;;;34.38;17.00;;;-1.50;99.90;;;;;;5059871;28;20119;-74
2021/03/03 03:53:32;;;;;;;30.67;15.38;;;-1.60;99.90;;;;;;5054618;28;20074;-74
2021/03/03 03:55:58;;;;;;;33.75;16.67;;;-1.60;99.90;;;;;;5054469;28;20551;-74
2021/03/03 03:58:23;;;;;;;32.08;16.10;;;-1.60;99.90;;;;;;5053071;28;20166;-74
2021/03/03 04:00:49;;;;;;;33.80;18.48;;;-1.60;99.90;;;;;;5053071;28;20041;-75
2021/03/03 04:03:15;;;;;;;34.63;17.17;;;-1.60;99.90;;;;;;5054404;28;20032;-74
2021/03/03 04:05:40;;;;;;;33.90;16.77;;;-1.60;99.90;;;;;;5065112;28;20373;-75
2021/03/03 04:08:06;;;;;;;31.05;16.25;;;-1.70;99.90;;;;;;5074288;28;20044;-74
2021/03/03 04:10:32;;;;;;;33.80;15.82;;;-1.70;99.90;;;;;;5072817;28;20078;-74
2021/03/03 04:12:57;;;;;;;33.60;17.10;;;-1.70;99.90;;;;;;5072805;28;20032;-74
2021/03/03 04:15:24;;;;;;;30.55;16.33;;;-1.70;99.90;;;;;;5066815;28;20025;-74
2021/03/03 04:17:50;;;;;;;32.10;16.05;;;-1.80;99.90;;;;;;5053986;28;20036;-74
2021/03/03 04:20:17;;;;;;;33.88;17.90;;;-1.80;99.90;;;;;;5069607;28;20056;-74
2021/03/03 04:22:43;;;;;;;36.60;17.05;;;-1.80;99.90;;;;;;5054303;28;20024;-75
2021/03/03 04:25:11;;;;;;;32.53;16.25;;;-1.80;99.90;;;;;;5054541;28;20029;-74
2021/03/03 04:27:37;;;;;;;37.90;18.95;;;-1.70;99.90;;;;;;5067764;28;20090;-74
2021/03/03 04:30:05;;;;;;;34.10;17.20;;;-1.70;99.90;;;;;;5053855;28;20029;-74
2021/03/03 04:32:31;;;;;;;34.75;17.80;;;-1.70;99.90;;;;;;5053683;28;20544;-74
2021/03/03 04:34:57;;;;;;;34.08;17.55;;;-1.80;99.90;;;;;;5053469;28;20064;-74
2021/03/03 04:37:22;;;;;;;35.83;18.85;;;-1.80;99.90;;;;;;5053755;28;20024;-75
2021/03/03 04:39:48;;;;;;;35.83;17.90;;;-1.80;99.90;;;;;;5053580;28;20025;-74
2021/03/03 04:42:14;;;;;;;48.22;21.55;;;-1.80;99.90;;;;;;5053539;28;20029;-75
2021/03/03 04:44:39;;;;;;;42.95;20.00;;;-1.80;99.90;;;;;;5053095;28;20029;-74
2021/03/03 04:47:05;;;;;;;44.85;20.10;;;-1.80;99.90;;;;;;5052649;28;20404;-74
2021/03/03 04:49:30;;;;;;;44.10;20.00;;;-1.70;99.90;;;;;;5053823;28;20069;-75
2021/03/03 04:51:56;;;;;;;36.15;18.60;;;-1.80;99.90;;;;;;5067966;28;20017;-74
2021/03/03 04:54:21;;;;;;;36.85;18.33;;;-1.70;99.90;;;;;;5052777;28;20029;-74
2021/03/03 04:56:47;;;;;;;40.30;18.98;;;-1.80;99.90;;;;;;5053649;28;20105;-74
2021/03/03 04:59:12;;;;;;;38.22;17.95;;;-1.80;99.90;;;;;;5053209;28;20374;-74
2021/03/03 05:01:38;;;;;;;39.53;18.70;;;-1.90;99.90;;;;;;5053241;28;20496;-74
2021/03/03 05:04:04;;;;;;;39.20;19.15;;;-1.90;99.90;;;;;;5051352;28;20085;-74
2021/03/03 05:06:29;;;;;;;41.10;20.48;;;-1.90;99.90;;;;;;5070007;28;20032;-75
2021/03/03 05:08:55;;;;;;;44.67;20.13;;;-1.90;99.90;;;;;;5072986;28;20021;-75
2021/03/03 05:11:24;;;;;;;50.47;21.08;;;-1.90;99.90;;;;;;5072899;28;20027;-75
2021/03/03 05:13:50;;;;;;;40.33;19.58;;;-1.90;99.90;;;;;;5072455;28;20037;-75
2021/03/03 05:16:16;;;;;;;41.50;20.75;;;-1.90;99.90;;;;;;5059160;28;20082;-74
2021/03/03 05:18:41;;;;;;;35.67;18.38;;;-2.00;99.90;;;;;;5052994;28;20029;-74
2021/03/03 05:21:07;;;;;;;35.72;18.23;;;-2.00;99.90;;;;;;5067061;28;20405;-74
2021/03/03 05:23:34;;;;;;;34.78;17.48;;;-1.90;99.90;;;;;;5071388;28;20056;-74
2021/03/03 05:26:01;;;;;;;37.22;17.17;;;-2.00;99.90;;;;;;5071348;28;20029;-74
2021/03/03 05:28:28;;;;;;;38.78;17.67;;;-2.00;99.90;;;;;;5072687;28;20070;-74
2021/03/03 05:30:54;;;;;;;36.85;17.73;;;-2.10;99.90;;;;;;5072493;28;20020;-74
2021/03/03 05:33:27;;;;;;;34.83;18.40;;;-2.10;99.90;;;;;;5071297;28;20031;-74
2021/03/03 05:35:54;;;;;;;37.63;18.25;;;-2.10;99.90;;;;;;5058341;28;20033;-74
2021/03/03 05:38:20;;;;;;;35.00;18.40;;;-2.10;99.90;;;;;;5052623;28;20040;-74
2021/03/03 05:40:46;;;;;;;40.78;18.70;;;-2.20;99.90;;;;;;5051210;28;20029;-74
2021/03/03 05:43:13;;;;;;;47.20;19.42;;;-2.10;99.90;;;;;;5052447;28;20127;-74
2021/03/03 05:45:41;;;;;;;36.20;19.15;;;-2.10;99.90;;;;;;5060053;28;20039;-74
2021/03/03 05:48:31;;;;;;;44.47;20.23;;;-2.10;99.90;;;;;;5072400;28;20048;-75
2021/03/03 05:50:57;;;;;;;46.03;21.42;;;-2.00;99.90;;;;;;5057913;28;20037;-74
2021/03/03 05:53:26;;;;;;;45.70;20.83;;;-2.00;99.90;;;;;;5051301;28;20534;-74
2021/03/03 05:56:00;;;;;;;49.30;20.27;;;-2.00;99.90;;;;;;5051592;28;20144;-74
2021/03/03 05:58:28;;;;;;;46.80;22.02;;;-2.10;99.90;;;;;;5052084;28;20021;-75
2021/03/03 06:00:59;;;;;;;43.00;19.33;;;-2.10;99.90;;;;;;5051996;28;20481;-75
2021/03/03 06:03:25;;;;;;;37.65;19.52;;;-2.10;99.90;;;;;;5052105;28;20025;-74
2021/03/03 06:05:51;;;;;;;39.95;19.77;;;-2.10;99.90;;;;;;5054152;28;20508;-75
2021/03/03 06:08:19;;;;;;;47.42;20.13;;;-2.10;99.90;;;;;;5051986;28;20025;-74
2021/03/03 06:10:44;;;;;;;39.80;18.38;;;-2.10;99.90;;;;;;5051851;28;20074;-74
2021/03/03 06:13:11;;;;;;;43.03;18.95;;;-2.10;99.90;;;;;;5050710;28;20428;-75
2021/03/03 06:15:37;;;;;;;41.65;20.10;;;-2.10;99.90;;;;;;5051414;28;20519;-74
2021/03/03 06:18:06;;;;;;;40.75;18.98;;;-2.10;99.90;;;;;;5067217;28;20548;-74
2021/03/03 06:20:37;;;;;;;37.95;18.73;;;-2.10;99.90;;;;;;5052403;28;20029;-74
2021/03/03 06:23:14;;;;;;;41.40;19.60;;;-2.10;99.90;;;;;;5051853;28;20481;-74
2021/03/03 06:25:40;;;;;;;39.20;20.13;;;-2.10;99.90;;;;;;5062935;28;20567;-74
2021/03/03 06:28:06;;;;;;;42.40;19.88;;;-2.20;99.90;;;;;;5070726;28;20028;-74
2021/03/03 06:30:32;;;;;;;41.25;19.48;;;-2.20;99.90;;;;;;5071696;28;20028;-74
2021/03/03 06:33:01;;;;;;;42.50;20.23;;;-2.20;99.90;;;;;;5071541;28;20130;-74
2021/03/03 06:35:48;;;;;;;41.05;19.52;;;-2.20;99.90;;;;;;5060950;28;20485;-74
2021/03/03 06:38:16;;;;;;;40.00;19.27;;;-2.10;99.90;;;;;;5050380;28;20397;-74
2021/03/03 06:40:49;;;;;;;50.22;20.75;;;-2.10;99.90;;;;;;5050104;28;20473;-74
2021/03/03 06:43:22;;;;;;;47.72;20.10;;;-2.00;99.90;;;;;;5062472;28;20027;-74
2021/03/03 06:45:47;;;;;;;46.92;20.38;;;-2.00;99.90;;;;;;5065297;28;20028;-74
2021/03/03 06:48:13;;;;;;;43.65;21.33;;;-1.90;99.90;;;;;;5066318;28;20021;-74
2021/03/03 06:50:40;;;;;;;42.95;20.10;;;-1.80;99.90;;;;;;5056359;28;20039;-74
2021/03/03 06:53:07;;;;;;;40.25;20.05;;;-1.80;99.90;;;;;;5053184;28;20027;-74
2021/03/03 06:55:49;;;;;;;39.97;19.75;;;-1.80;99.90;;;;;;5054412;28;20036;-74
2021/03/03 06:58:31;;;;;;;45.22;22.08;;;-1.70;99.90;;;;;;5051158;28;20639;-74
2021/03/03 07:00:58;;;;;;;50.08;21.23;;;-1.60;99.90;;;;;;5071234;28;20663;-75
2021/03/03 07:03:35;;;;;;;46.45;20.83;;;-1.50;99.90;;;;;;5080474;28;20040;-74
2021/03/03 07:06:01;;;;;;;48.55;21.95;;;-1.40;99.90;;;;;;5064333;28;20028;-74
2021/03/03 07:08:27;;;;;;;53.85;22.45;;;-1.30;99.90;;;;;;5070932;28;20066;-74
2021/03/03 07:10:53;;;;;;;51.15;22.00;;;-1.20;99.90;;;;;;5070529;28;20485;-74
2021/03/03 07:13:40;;;;;;;44.15;21.58;;;-1.10;99.90;;;;;;5069446;28;20021;-73
2021/03/03 07:16:08;;;;;;;49.13;21.15;;;-1.00;99.90;;;;;;5052283;28;20389;-74
2021/03/03 07:18:37;;;;;;;52.28;24.17;;;-0.90;99.90;;;;;;5054963;28;20087;-74
2021/03/03 07:21:05;;;;;;;46.90;22.55;;;-0.80;99.90;;;;;;5054679;28;20032;-74
2021/03/03 07:23:46;;;;;;;54.13;23.08;;;-0.60;99.90;;;;;;5087112;28;20027;-74
2021/03/03 07:26:12;;;;;;;49.03;23.55;;;-0.40;99.90;;;;;;5074640;28;20503;-74
2021/03/03 07:28:39;;;;;;;50.72;22.58;;;-0.30;99.90;;;;;;5059377;28;20021;-74
2021/03/03 07:31:06;;;;;;;45.78;20.77;;;-0.20;99.90;;;;;;5054191;28;20025;-74
2021/03/03 07:33:31;;;;;;;45.15;21.23;;;-0.20;99.90;;;;;;5064531;28;20020;-75
2021/03/03 07:36:02;;;;;;;44.95;20.42;;;-0.10;99.90;;;;;;5055118;28;20048;-74
2021/03/03 07:38:32;;;;;;;47.72;21.80;;;0.00;99.90;;;;;;5065034;28;20085;-74
2021/03/03 07:41:05;;;;;;;47.10;21.65;;;0.10;99.90;;;;;;5073340;28;20419;-74
2021/03/03 07:43:32;;;;;;;45.10;21.50;;;0.20;99.90;;;;;;5074762;28;20032;-74
2021/03/03 07:46:06;;;;;;;46.90;21.25;;;0.30;99.90;;;;;;5073354;28;20618;-74
2021/03/03 07:48:32;;;;;;;50.20;22.10;;;0.40;99.90;;;;;;5074744;28;20480;-74
2021/03/03 07:50:58;;;;;;;45.70;22.13;;;0.50;99.90;;;;;;5060360;28;20029;-74
2021/03/03 07:53:25;;;;;;;45.63;21.92;;;0.70;99.90;;;;;;5054594;28;20457;-74
2021/03/03 07:55:56;;;;;;;45.15;21.33;;;0.80;99.90;;;;;;5054155;28;20508;-74
2021/03/03 07:58:22;;;;;;;49.78;23.50;;;0.90;99.90;;;;;;5054515;28;20100;-74
2021/03/03 08:00:48;;;;;;;45.03;22.13;;;1.10;99.90;;;;;;5053924;28;20412;-74
2021/03/03 08:03:13;;;;;;;45.63;22.38;;;1.20;99.90;;;;;;5072707;28;20528;-74
2021/03/03 08:05:40;;;;;;;43.60;21.55;;;1.30;99.90;;;;;;5071339;28;20249;-74
2021/03/03 08:08:26;;;;;;;42.60;21.25;;;1.40;99.90;;;;;;5074003;28;20384;-74
2021/03/03 08:11:12;;;;;;;38.42;19.33;;;1.50;99.90;;;;;;5074032;28;20044;-74
2021/03/03 08:13:39;;;;;;;42.22;22.65;;;1.70;99.90;;;;;;5076057;28;20020;-74
2021/03/03 08:16:06;;;;;;;42.03;21.20;;;1.90;99.90;;;;;;5074876;28;20021;-74
2021/03/03 08:18:34;;;;;;;45.40;23.02;;;2.00;99.90;;;;;;5055559;28;20029;-74
2021/03/03 08:21:21;;;;;;;43.50;22.88;;;2.10;99.90;;;;;;5052864;28;20420;-74
2021/03/03 08:24:08;;;;;;;60.58;21.95;;;2.20;99.90;;;;;;5053065;28;20025;-74
2021/03/03 08:26:34;;;;;;;39.60;22.52;;;2.40;99.90;;;;;;5069731;28;20128;-74
2021/03/03 08:29:16;;;;;;;47.25;25.40;;;2.60;99.90;;;;;;5073242;28;20013;-74
2021/03/03 08:31:42;;;;;;;47.70;25.27;;;2.80;99.90;;;;;;5073594;28;20025;-74
2021/03/03 08:34:09;;;;;;;51.85;25.70;;;2.90;99.90;;;;;;5073061;28;20071;-74
2021/03/03 08:36:36;;;;;;;53.35;25.75;;;3.10;99.90;;;;;;5057186;28;20393;-74
2021/03/03 08:39:02;;;;;;;44.60;25.20;;;3.30;99.90;;;;;;5085573;28;20028;-74
2021/03/03 08:41:34;;;;;;;45.80;23.73;;;3.40;99.90;;;;;;5086718;28;20024;-74
2021/03/03 08:44:09;;;;;;;46.25;23.20;;;3.50;99.90;;;;;;5074750;28;20025;-74
2021/03/03 08:46:39;;;;;;;36.35;19.60;;;3.70;99.90;;;;;;5068760;28;20401;-74
2021/03/03 08:49:04;;;;;;;37.75;22.30;;;3.80;99.90;;;;;;5056439;28;20025;-74
2021/03/03 08:51:40;;;;;;;42.30;22.05;;;4.00;99.90;;;;;;5092136;28;20441;-74
2021/03/03 08:54:19;;;;;;;40.15;22.77;;;4.20;99.90;;;;;;5092762;28;20016;-74
2021/03/03 08:56:54;;;;;;;42.58;23.40;;;4.30;99.90;;;;;;5093425;28;20392;-74
2021/03/03 08:59:31;;;;;;;40.05;21.88;;;4.50;99.90;;;;;;5093586;28;20056;-75
2021/03/03 09:02:08;;;;;;;41.05;23.55;;;4.70;99.90;;;;;;5068847;28;20529;-75
2021/03/03 09:04:43;;;;;;;46.15;25.67;;;4.90;99.90;;;;;;5091204;28;20035;-74
2021/03/03 09:07:23;;;;;;;43.15;24.17;;;5.00;99.90;;;;;;5071827;28;20029;-74
2021/03/03 09:10:10;;;;;;;40.05;22.70;;;5.20;99.90;;;;;;5067607;28;20028;-74
2021/03/03 09:12:40;;;;;;;43.22;23.00;;;5.40;99.90;;;;;;5061797;28;20025;-74
2021/03/03 09:15:08;;;;;;;44.75;23.92;;;5.70;99.90;;;;;;5052193;28;20029;-74
2021/03/03 09:17:36;;;;;;;46.15;25.00;;;5.70;99.90;;;;;;5051500;28;20435;-74
2021/03/03 09:20:15;;;;;;;42.58;23.67;;;6.00;99.90;;;;;;5052834;28;20498;-74
2021/03/03 09:22:43;;;;;;;46.63;23.00;;;6.20;99.90;;;;;;5070223;28;20091;-74
2021/03/03 09:25:15;;;;;;;41.67;24.02;;;6.30;99.90;;;;;;5052178;28;20568;-74
2021/03/03 09:27:51;;;;;;;50.40;24.02;;;6.40;99.90;;;;;;5052775;28;20094;-74
2021/03/03 09:30:19;;;;;;;48.40;25.58;;;6.60;99.90;;;;;;5052704;28;20043;-74
2021/03/03 09:32:46;;;;;;;50.35;26.73;;;6.80;99.90;;;;;;5053188;28;20017;-75
2021/03/03 09:35:13;;;;;;;54.05;27.95;;;6.90;99.90;;;;;;5050721;28;20392;-75
2021/03/03 09:37:42;;;;;;;46.95;26.45;;;7.00;99.90;;;;;;5052468;28;20029;-75
2021/03/03 09:40:10;;;;;;;50.47;27.27;;;7.10;99.90;;;;;;5052359;28;20025;-75
2021/03/03 09:42:39;;;;;;;53.53;28.95;;;7.20;99.90;;;;;;5052548;28;20037;-74
2021/03/03 09:45:06;;;;;;;66.18;32.22;;;7.40;99.90;;;;;;5050448;28;20024;-74
2021/03/03 09:47:35;;;;;;;53.70;28.30;;;7.60;99.90;;;;;;5067662;28;20021;-75
2021/03/03 09:50:10;;;;;;;59.63;28.33;;;7.60;99.90;;;;;;5052257;28;20025;-75
2021/03/03 09:52:40;;;;;;;54.63;27.50;;;7.80;99.90;;;;;;5052735;28;20025;-75
2021/03/03 09:55:10;;;;;;;53.35;27.75;;;7.60;99.90;;;;;;5050337;28;20032;-75
2021/03/03 09:57:36;;;;;;;52.45;28.60;;;7.80;99.90;;;;;;5052253;28;20025;-75
2021/03/03 10:00:25;;;;;;;55.97;27.48;;;7.80;99.90;;;;;;5050741;28;20029;-75
2021/03/03 10:03:03;;;;;;;50.03;26.77;;;7.80;99.90;;;;;;5051832;28;20037;-75
2021/03/03 10:05:32;;;;;;;47.38;26.13;;;7.90;99.90;;;;;;5051615;28;20031;-75
2021/03/03 10:08:05;;;;;;;57.88;27.33;;;7.90;99.90;;;;;;5052103;28;20040;-74
2021/03/03 10:10:33;;;;;;;;;;;7.90;99.90;;;;;;5052306;28;20021;-75
2021/03/03 10:12:59;;;;;;;49.28;25.98;;;8.10;99.90;;;;;;5069033;28;20003;-74
2021/03/03 10:15:39;;;;;;;52.00;27.38;;;8.30;99.90;;;;;;5071141;28;20449;-75
2021/03/03 10:18:09;;;;;;;51.40;28.45;;;8.60;99.90;;;;;;5071790;28;20115;-75
2021/03/03 10:20:35;;;;;;;52.00;27.10;;;8.90;99.90;;;;;;5067921;28;20029;-75
2021/03/03 10:23:20;;;;;;;54.53;27.95;;;8.90;99.90;;;;;;5067074;28;20039;-75
2021/03/03 10:25:49;;;;;;;60.47;29.58;;;9.10;99.90;;;;;;5059835;28;20037;-76
2021/03/03 10:28:24;;;;;;;51.25;27.98;;;9.20;99.90;;;;;;5067435;28;20508;-75
2021/03/03 10:30:54;;;;;;;48.25;27.02;;;9.10;99.90;;;;;;5051268;28;20037;-75
2021/03/03 10:33:28;;;;;;;49.17;27.75;;;8.90;99.90;;;;;;5051457;28;20025;-75
2021/03/03 10:35:55;;;;;;;55.80;26.35;;;8.90;99.90;;;;;;5056856;28;20032;-75
2021/03/03 10:38:22;;;;;;;45.95;25.98;;;9.00;99.90;;;;;;5070243;28;20760;-75
2021/03/03 10:40:50;;;;;;;50.92;27.05;;;9.20;99.90;;;;;;5071461;28;20032;-75
2021/03/03 10:43:26;;;;;;;50.88;27.80;;;9.20;99.90;;;;;;5070236;28;20024;-75
2021/03/03 10:46:12;;;;;;;57.03;28.63;;;9.30;99.90;;;;;;5066351;28;20411;-75
2021/03/03 10:48:39;;;;;;;52.17;28.92;;;9.30;99.90;;;;;;5049902;28;20475;-75
2021/03/03 10:51:05;;;;;;;50.65;28.15;;;9.40;99.90;;;;;;5051039;28;20025;-75
2021/03/03 10:53:43;;;;;;;59.10;28.63;;;9.40;99.90;;;;;;5051423;28;20033;-75
2021/03/03 10:56:33;;;;;;;52.33;28.33;;;9.50;99.90;;;;;;5053497;28;20463;-76
2021/03/03 10:59:09;;;;;;;55.85;29.50;;;9.60;99.90;;;;;;5061915;28;20027;-75
2021/03/03 11:01:49;;;;;;;49.95;28.50;;;9.60;99.90;;;;;;5050064;28;20029;-75
2021/03/03 11:04:15;;;;;;;63.10;29.63;;;9.80;99.90;;;;;;5050601;28;20108;-75
2021/03/03 11:06:41;;;;;;;62.63;30.67;;;9.90;99.90;;;;;;5050789;28;20115;-75
2021/03/03 11:09:15;;;;;;;57.72;30.42;;;10.00;99.90;;;;;;5051310;28;20101;-75
2021/03/03 11:11:49;;;;;;;63.00;30.67;;;10.10;99.90;;;;;;5051042;28;20033;-75
2021/03/03 11:14:14;;;;;;;65.15;32.50;;;10.20;99.90;;;;;;5050596;28;20384;-75
2021/03/03 11:16:40;;;;;;;60.33;32.72;;;10.40;99.90;;;;;;5059614;28;20047;-75
2021/03/03 11:19:05;;;;;;;67.95;31.75;;;10.50;99.90;;;;;;5071163;28;20417;-75
2021/03/03 11:21:31;;;;;;;63.05;31.42;;;10.40;99.90;;;;;;5059595;28;20083;-75
2021/03/03 11:23:56;;;;;;;60.45;29.90;;;10.40;99.90;;;;;;5050258;28;20032;-75
2021/03/03 11:26:22;;;;;;;58.38;31.63;;;10.40;99.90;;;;;;5050008;28;20060;-75
2021/03/03 11:28:47;;;;;;;62.83;31.67;;;10.50;99.90;;;;;;5059756;28;20043;-75
2021/03/03 11:31:13;;;;;;;58.72;30.50;;;10.60;99.90;;;;;;5057287;28;20025;-75
2021/03/03 11:33:39;;;;;;;56.35;30.63;;;10.70;99.90;;;;;;5070593;28;20074;-75
2021/03/03 11:36:05;;;;;;;57.97;30.27;;;10.90;99.90;;;;;;5069861;28;20105;-75
2021/03/03 11:38:30;;;;;;;66.38;33.42;;;11.00;99.90;;;;;;5069573;28;20485;-76
2021/03/03 11:40:56;;;;;;;66.03;35.47;;;11.10;99.90;;;;;;5069411;28;20027;-76
2021/03/03 11:43:22;;;;;;;67.38;34.78;;;11.20;99.90;;;;;;5069499;28;20020;-76
2021/03/03 11:45:47;;;;;;;67.80;33.88;;;11.20;99.90;;;;;;5067738;28;20036;-75
2021/03/03 11:48:13;;;;;;;70.78;34.72;;;11.20;99.90;;;;;;5049751;28;20385;-75
2021/03/03 11:50:38;;;;;;;68.35;33.17;;;11.30;99.90;;;;;;5050771;28;20108;-75
2021/03/03 11:53:04;;;;;;;64.95;32.88;;;11.30;99.90;;;;;;5050550;28;20017;-75
2021/03/03 11:55:29;;;;;;;59.00;32.75;;;11.40;99.90;;;;;;5050084;28;20473;-75
2021/03/03 11:57:55;;;;;;;71.90;33.95;;;11.40;99.90;;;;;;5079575;28;20025;-75
2021/03/03 12:00:21;;;;;;;60.33;31.83;;;11.50;99.90;;;;;;5050303;28;20029;-76
2021/03/03 12:02:46;;;;;;;63.50;33.25;;;11.50;99.90;;;;;;5052284;28;20036;-75
2021/03/03 12:05:13;;;;;;;59.97;32.42;;;11.70;99.90;;;;;;5052692;28;20033;-76
2021/03/03 12:07:38;;;;;;;63.58;32.72;;;11.80;99.90;;;;;;5069978;28;20524;-76
2021/03/03 12:10:05;;;;;;;58.67;31.90;;;11.90;99.90;;;;;;5052829;28;20029;-76
2021/03/03 12:12:31;;;;;;;62.10;33.58;;;11.90;99.90;;;;;;5052753;28;20055;-76
2021/03/03 12:14:57;;;;;;;59.50;32.97;;;11.90;99.90;;;;;;5053441;28;20025;-75
2021/03/03 12:17:22;;;;;;;63.83;32.70;;;11.80;99.90;;;;;;5067810;28;20040;-76
2021/03/03 12:19:48;;;;;;;62.45;32.95;;;11.90;99.90;;;;;;5073940;28;20024;-75
2021/03/03 12:22:13;;;;;;;67.28;33.92;;;12.00;99.90;;;;;;5055358;28;20032;-75
2021/03/03 12:24:39;;;;;;;63.13;34.00;;;12.00;99.90;;;;;;5062186;28;20039;-75
2021/03/03 12:27:04;;;;;;;69.20;32.70;;;12.20;99.90;;;;;;5054145;28;20029;-75
2021/03/03 12:29:30;;;;;;;62.92;32.15;;;12.20;99.90;;;;;;5052485;28;20120;-75
2021/03/03 12:31:56;;;;;;;61.90;32.60;;;12.20;99.90;;;;;;5053524;28;20036;-75
2021/03/03 12:34:22;;;;;;;58.60;32.88;;;12.10;99.90;;;;;;5053124;28;20499;-75
2021/03/03 12:36:47;;;;;;;56.05;32.15;;;12.20;99.90;;;;;;5074223;28;20028;-75
2021/03/03 12:39:13;;;;;;;62.05;33.35;;;12.30;99.90;;;;;;5073489;28;20028;-76